createdAt,value
2022-08-19T00:02:03.801Z,535.40
2022-08-19T00:04:36.494Z,466.57
2022-08-19T00:07:07.313Z,471.87
2022-08-19T00:09:36.393Z,440.00
2022-08-19T00:12:10.023Z,507.93
2022-08-19T00:14:39.424Z,621.47
2022-08-19T00:17:09.289Z,514.53
2022-08-19T00:19:39.470Z,647.30
2022-08-19T00:22:10.401Z,533.07
2022-08-19T00:24:39.615Z,643.30
2022-08-19T00:27:26.009Z,566.00
2022-08-19T00:29:55.138Z,539.53
2022-08-19T00:32:25.033Z,573.23
2022-08-19T00:34:55.830Z,644.07
2022-08-19T00:37:25.041Z,657.90
2022-08-19T00:39:55.283Z,604.60
2022-08-19T00:42:25.214Z,524.90
2022-08-19T00:44:59.190Z,601.47
2022-08-19T00:47:27.491Z,533.40
2022-08-19T00:49:59.213Z,661.80
2022-08-19T00:52:31.375Z,687.40
2022-08-19T00:55:00.804Z,500.63
2022-08-19T00:57:35.033Z,619.00
2022-08-19T01:00:07.279Z,516.47
2022-08-19T01:02:36.075Z,613.10
2022-08-19T01:05:09.870Z,796.03
2022-08-19T01:10:43.111Z,656.80
2022-08-19T01:13:14.780Z,597.17
2022-08-19T01:15:46.585Z,655.63
2022-08-19T01:18:18.982Z,700.83
2022-08-19T01:20:49.455Z,658.33
2022-08-19T01:23:20.300Z,691.37
2022-08-19T01:25:52.397Z,571.77
2022-08-19T01:28:34.138Z,746.70
2022-08-19T01:31:09.025Z,644.33
2022-08-19T01:33:38.176Z,726.63
2022-08-19T01:36:09.599Z,558.30
2022-08-19T01:38:44.128Z,768.70
2022-08-19T01:41:14.023Z,392.70
2022-08-19T01:44:13.941Z,673.17
2022-08-19T01:46:44.515Z,616.47
2022-08-19T01:49:13.291Z,641.97
2022-08-19T01:51:48.636Z,394.60
2022-08-19T01:54:23.450Z,689.47
2022-08-19T01:57:00.574Z,598.33
2022-08-19T01:59:30.153Z,475.73
2022-08-19T02:02:01.496Z,667.20
2022-08-19T02:04:29.769Z,521.70
2022-08-19T02:06:59.712Z,751.40
2022-08-19T02:09:44.458Z,689.90
2022-08-19T02:12:13.028Z,725.47
2022-08-19T02:14:41.290Z,470.77
2022-08-19T02:17:20.104Z,770.90
2022-08-19T02:19:50.047Z,407.10
2022-08-19T02:22:19.058Z,604.67
2022-08-19T02:24:50.183Z,690.33
2022-08-19T02:27:18.478Z,756.73
2022-08-19T02:29:49.498Z,451.03
2022-08-19T02:32:18.176Z,518.40
2022-08-19T02:34:47.159Z,671.73
2022-08-19T02:37:29.305Z,485.73
2022-08-19T02:39:59.320Z,416.87
2022-08-19T02:42:27.814Z,678.60
2022-08-19T02:44:57.861Z,428.50
2022-08-19T02:47:26.480Z,577.43
2022-08-19T02:49:54.742Z,902.87
2022-08-19T02:52:24.626Z,773.80
2022-08-19T02:54:54.617Z,759.33
2022-08-19T02:57:24.563Z,582.90
2022-08-19T02:59:53.700Z,973.70
2022-08-19T03:02:36.353Z,834.63
2022-08-19T03:05:06.896Z,870.40
2022-08-19T03:07:35.139Z,761.77
2022-08-19T03:10:03.218Z,777.80
2022-08-19T03:12:32.818Z,594.50
2022-08-19T03:15:11.594Z,827.73
2022-08-19T03:17:39.725Z,851.43
2022-08-19T03:20:08.905Z,900.10
2022-08-19T03:22:39.787Z,661.17
2022-08-19T03:25:09.058Z,927.00
2022-08-19T03:27:38.817Z,879.40
2022-08-19T03:30:23.156Z,918.13
2022-08-19T03:32:57.072Z,906.90
2022-08-19T03:35:26.108Z,914.20
2022-08-19T03:37:54.520Z,983.90
2022-08-19T03:40:22.899Z,889.90
2022-08-19T03:42:56.278Z,888.97
2022-08-19T03:45:25.732Z,880.97
2022-08-19T03:47:53.725Z,942.37
2022-08-19T03:50:22.806Z,884.50
2022-08-19T03:52:52.588Z,878.17
2022-08-19T03:55:23.185Z,833.80
2022-08-19T03:57:58.619Z,835.87
2022-08-19T04:00:27.496Z,973.90
2022-08-19T04:03:00.540Z,798.47
2022-08-19T04:05:30.919Z,870.70
2022-08-19T04:08:00.594Z,910.60
2022-08-19T04:10:29.659Z,869.57
2022-08-19T04:12:59.396Z,956.87
2022-08-19T04:15:29.203Z,822.67
2022-08-19T04:17:59.818Z,855.57
2022-08-19T04:20:28.020Z,675.40
2022-08-19T04:22:56.285Z,973.33
2022-08-19T04:25:25.533Z,828.23
2022-08-19T04:27:55.311Z,906.47
2022-08-19T04:30:26.078Z,847.00
2022-08-19T04:32:54.129Z,832.80
2022-08-19T04:35:44.897Z,545.23
2022-08-19T04:38:14.471Z,880.30
2022-08-19T04:41:03.568Z,830.43
2022-08-19T04:43:33.926Z,673.90
2022-08-19T04:46:09.542Z,795.13
2022-08-19T04:48:49.216Z,745.50
2022-08-19T04:51:19.174Z,873.83
2022-08-19T04:53:47.187Z,833.30
2022-08-19T04:56:17.541Z,800.43
2022-08-19T04:59:07.110Z,916.00
2022-08-19T05:01:44.245Z,798.87
2022-08-19T05:04:13.020Z,829.30
2022-08-19T05:06:46.748Z,896.87
2022-08-19T05:09:14.999Z,844.50
2022-08-19T05:11:43.165Z,810.10
2022-08-19T05:14:19.118Z,673.53
2022-08-19T05:16:50.015Z,458.37
2022-08-19T05:19:35.491Z,847.10
2022-08-19T05:22:20.602Z,820.83
2022-08-19T05:25:11.185Z,760.03
2022-08-19T05:27:41.561Z,785.93
2022-08-19T05:30:46.386Z,679.00
2022-08-19T05:33:40.736Z,807.97
2022-08-19T05:36:21.172Z,729.93
2022-08-19T05:38:51.133Z,900.20
2022-08-19T05:41:20.058Z,957.90
2022-08-19T05:43:49.105Z,924.20
2022-08-19T05:46:36.910Z,533.53
2022-08-19T05:49:22.844Z,866.93
2022-08-19T05:51:52.239Z,535.73
2022-08-19T05:54:22.451Z,787.70
2022-08-19T05:57:06.054Z,830.13
2022-08-19T05:59:34.908Z,623.60
2022-08-19T06:02:04.047Z,677.87
2022-08-19T06:04:40.789Z,742.23
2022-08-19T06:07:12.812Z,670.63
2022-08-19T06:09:43.783Z,660.97
2022-08-19T06:12:34.178Z,779.67
2022-08-19T06:15:03.215Z,833.20
2022-08-19T06:17:32.649Z,666.07
2022-08-19T06:20:18.756Z,703.13
2022-08-19T06:22:50.575Z,649.60
2022-08-19T06:25:19.352Z,579.50
2022-08-19T06:28:15.100Z,761.17
2022-08-19T06:30:47.119Z,564.07
2022-08-19T06:33:25.655Z,665.10
2022-08-19T06:35:57.518Z,605.23
2022-08-19T06:38:26.036Z,702.03
2022-08-19T06:41:07.364Z,391.33
2022-08-19T06:43:54.053Z,766.60
2022-08-19T06:46:24.183Z,716.90
2022-08-19T06:48:55.934Z,587.70
2022-08-19T06:54:32.429Z,680.07
2022-08-19T06:57:08.333Z,375.93
2022-08-19T06:59:36.520Z,413.50
2022-08-19T07:02:07.625Z,583.47
2022-08-19T07:04:42.188Z,644.33
2022-08-19T07:07:19.734Z,325.37
2022-08-19T07:09:55.322Z,643.10
2022-08-19T07:12:30.227Z,624.27
2022-08-19T07:15:00.037Z,736.00
2022-08-19T07:17:29.842Z,640.17
2022-08-19T07:19:58.949Z,696.07
2022-08-19T07:22:34.918Z,516.67
2022-08-19T07:25:04.763Z,301.80
2022-08-19T07:27:33.459Z,586.17
2022-08-19T07:30:02.381Z,405.97
2022-08-19T07:32:30.428Z,674.90
2022-08-19T07:34:58.271Z,497.27
2022-08-19T07:37:32.521Z,785.90
2022-08-19T07:40:02.288Z,724.13
2022-08-19T07:42:31.192Z,260.20
2022-08-19T07:44:59.484Z,827.87
2022-08-19T07:47:50.319Z,331.10
2022-08-19T07:50:19.478Z,609.03
2022-08-19T07:52:48.857Z,372.83
2022-08-19T07:55:40.201Z,502.73
2022-08-19T07:58:12.553Z,800.37
2022-08-19T08:00:44.445Z,484.23
2022-08-19T08:03:14.283Z,514.37
2022-08-19T08:06:00.084Z,517.93
2022-08-19T08:08:48.008Z,559.73
2022-08-19T08:11:28.498Z,681.37
2022-08-19T08:14:01.247Z,689.93
2022-08-19T08:16:33.335Z,725.17
2022-08-19T08:19:02.512Z,527.03
2022-08-19T08:21:41.583Z,499.77
2022-08-19T08:24:15.911Z,485.43
2022-08-19T08:26:46.646Z,364.93
2022-08-19T08:29:14.822Z,747.23
2022-08-19T08:31:43.667Z,999.90
2022-08-19T08:34:14.986Z,818.97
2022-08-19T08:36:45.996Z,837.83
2022-08-19T08:39:15.408Z,999.90
2022-08-19T08:41:57.676Z,807.83
2022-08-19T08:44:33.825Z,749.33
2022-08-19T08:47:09.874Z,338.37
2022-08-19T08:49:44.774Z,557.60
2022-08-19T08:52:18.696Z,544.20
2022-08-19T08:54:54.861Z,342.77
2022-08-19T08:57:37.134Z,999.90
2022-08-19T09:00:15.648Z,999.90
2022-08-19T09:02:44.233Z,873.80
2022-08-19T09:05:16.722Z,592.63
2022-08-19T09:07:57.496Z,441.57
2022-08-19T09:10:31.399Z,794.53
2022-08-19T09:13:13.896Z,805.17
2022-08-19T09:15:47.465Z,280.53
2022-08-19T09:18:19.235Z,450.50
2022-08-19T09:20:49.116Z,495.17
2022-08-19T09:23:17.067Z,779.43
2022-08-19T09:25:44.870Z,774.47
2022-08-19T09:28:22.046Z,465.67
2022-08-19T09:30:52.930Z,999.90
2022-08-19T09:33:21.066Z,999.90
2022-08-19T09:35:49.956Z,999.90
2022-08-19T09:38:21.787Z,999.90
2022-08-19T09:40:50.950Z,999.90
2022-08-19T09:43:33.695Z,786.23
2022-08-19T09:46:02.395Z,166.43
2022-08-19T09:48:30.305Z,824.97
2022-08-19T09:51:05.066Z,999.90
2022-08-19T09:53:33.005Z,999.90
2022-08-19T09:56:01.995Z,999.90
2022-08-19T09:58:34.095Z,507.40
2022-08-19T10:01:03.574Z,779.40
2022-08-19T10:03:33.867Z,437.23
2022-08-19T10:06:03.627Z,999.90
2022-08-19T10:08:34.168Z,999.90
2022-08-19T10:11:28.162Z,999.90
2022-08-19T10:13:54.261Z,999.90
2022-08-19T10:16:25.964Z,999.90
2022-08-19T10:19:03.550Z,999.90
2022-08-19T10:21:35.313Z,999.90
2022-08-19T10:24:06.348Z,999.90
2022-08-19T10:26:37.141Z,999.90
2022-08-19T10:29:09.103Z,999.90
2022-08-19T10:32:00.737Z,427.77
2022-08-19T10:34:30.828Z,246.43
2022-08-19T10:37:02.647Z,999.90
2022-08-19T10:39:32.567Z,453.47
2022-08-19T10:42:01.900Z,999.90
2022-08-19T10:44:32.562Z,999.90
2022-08-19T10:47:01.580Z,999.90
2022-08-19T10:49:33.239Z,999.90
2022-08-19T10:52:24.790Z,749.03
2022-08-19T10:55:24.472Z,999.90
2022-08-19T10:58:02.674Z,999.90
2022-08-19T11:00:35.407Z,553.80
2022-08-19T11:03:05.305Z,999.90
2022-08-19T11:05:44.012Z,999.90
2022-08-19T11:08:23.323Z,999.90
2022-08-19T11:10:54.780Z,999.90
2022-08-19T11:13:23.317Z,999.90
2022-08-19T11:16:06.515Z,999.90
2022-08-19T11:18:39.129Z,999.90
2022-08-19T11:21:22.076Z,999.90
2022-08-19T11:23:58.053Z,999.90
2022-08-19T11:26:36.996Z,823.90
2022-08-19T11:29:07.296Z,412.77
2022-08-19T11:31:59.410Z,646.83
2022-08-19T11:34:35.921Z,531.00
2022-08-19T11:37:21.592Z,513.00
2022-08-19T11:39:56.819Z,891.57
2022-08-19T11:42:48.275Z,595.37
2022-08-19T11:45:30.645Z,510.57
2022-08-19T11:48:07.637Z,653.27
2022-08-19T11:50:35.886Z,222.93
2022-08-19T11:53:38.567Z,532.63
2022-08-19T11:56:12.052Z,82.90
2022-08-19T11:58:42.937Z,261.87
2022-08-19T12:01:18.083Z,890.17
2022-08-19T12:04:24.307Z,774.97
2022-08-19T12:07:08.897Z,726.83
2022-08-19T12:09:43.139Z,559.27
2022-08-19T12:12:15.616Z,98.77
2022-08-19T12:14:44.352Z,329.90
2022-08-19T12:17:17.663Z,113.63
2022-08-19T12:19:47.914Z,38.07
2022-08-19T12:22:21.743Z,44.17
2022-08-19T12:24:51.804Z,67.53
2022-08-19T12:27:32.169Z,89.25
2022-08-19T12:30:10.643Z,181.45
2022-08-19T12:32:39.186Z,133.45
2022-08-19T12:35:09.112Z,100.15
2022-08-19T12:37:38.453Z,76.15
2022-08-19T12:40:07.156Z,443.17
2022-08-19T12:42:35.816Z,180.80
2022-08-19T12:45:04.884Z,182.20
2022-08-19T12:47:34.507Z,211.15
2022-08-19T12:50:12.274Z,205.55
2022-08-19T12:52:43.467Z,196.25
2022-08-19T12:55:13.348Z,176.38
2022-08-19T12:57:41.451Z,202.23
2022-08-19T13:00:22.244Z,267.83
2022-08-19T13:02:52.836Z,370.27
2022-08-19T13:05:24.865Z,269.15
2022-08-19T13:07:56.892Z,341.52
2022-08-19T13:10:29.023Z,399.88
2022-08-19T13:12:57.877Z,327.60
2022-08-19T13:15:26.025Z,278.63
2022-08-19T13:17:57.731Z,309.45
2022-08-19T13:20:29.823Z,452.70
2022-08-19T13:23:01.073Z,239.23
2022-08-19T13:25:28.861Z,359.63
2022-08-19T13:28:03.087Z,266.90
2022-08-19T13:30:50.891Z,265.23
2022-08-19T13:33:21.243Z,239.70
2022-08-19T13:35:51.239Z,235.85
2022-08-19T13:38:23.971Z,252.38
2022-08-19T13:40:53.522Z,271.00
2022-08-19T13:43:23.780Z,229.75
2022-08-19T13:46:00.901Z,209.10
2022-08-19T13:48:33.687Z,178.43
2022-08-19T13:51:03.226Z,184.43
2022-08-19T13:53:32.270Z,181.43
2022-08-19T13:56:08.068Z,185.15
2022-08-19T13:58:35.935Z,139.80
2022-08-19T14:01:06.606Z,109.57
2022-08-19T14:03:35.437Z,107.07
2022-08-19T14:06:04.246Z,149.13
2022-08-19T14:08:33.727Z,115.60
2022-08-19T14:11:06.308Z,126.73
2022-08-19T14:13:35.077Z,98.43
2022-08-19T14:16:09.968Z,86.57
2022-08-19T14:18:38.546Z,78.43
2022-08-19T14:21:07.171Z,78.10
2022-08-19T14:23:37.603Z,85.83
2022-08-19T14:26:06.831Z,85.23
2022-08-19T14:28:34.902Z,64.43
2022-08-19T14:31:05.844Z,48.33
2022-08-19T14:33:34.486Z,49.93
2022-08-19T14:36:02.773Z,75.73
2022-08-19T14:38:32.395Z,46.30
2022-08-19T14:41:11.476Z,49.20
2022-08-19T14:43:39.843Z,56.73
2022-08-19T14:46:08.296Z,66.77
2022-08-19T14:48:41.592Z,67.13
2022-08-19T14:51:10.218Z,177.30
2022-08-19T14:53:38.552Z,97.20
2022-08-19T14:56:12.454Z,56.30
2022-08-19T14:58:41.328Z,57.37
2022-08-19T15:01:09.764Z,52.80
2022-08-19T15:03:37.593Z,51.83
2022-08-19T15:06:06.981Z,62.90
2022-08-19T15:08:37.961Z,141.73
2022-08-19T15:11:12.329Z,82.90
2022-08-19T15:13:41.401Z,88.67
2022-08-19T15:16:18.262Z,72.70
2022-08-19T15:18:47.843Z,72.37
2022-08-19T15:21:26.981Z,46.97
2022-08-19T15:23:56.775Z,47.30
2022-08-19T15:26:27.445Z,42.77
2022-08-19T15:28:55.867Z,41.40
2022-08-19T15:31:28.503Z,39.20
2022-08-19T15:33:58.610Z,55.67
2022-08-19T15:36:27.121Z,68.83
2022-08-19T15:38:55.661Z,81.27
2022-08-19T15:41:28.128Z,164.77
2022-08-19T15:43:59.661Z,58.03
2022-08-19T15:46:31.493Z,124.33
2022-08-19T15:49:00.459Z,53.57
2022-08-19T15:51:31.433Z,56.33
2022-08-19T15:54:02.330Z,122.77
2022-08-19T15:56:45.766Z,56.70
2022-08-19T15:59:47.297Z,60.53
2022-08-19T16:02:34.028Z,46.40
2022-08-19T16:05:19.252Z,55.10
2022-08-19T16:07:47.508Z,57.80
2022-08-19T16:10:27.188Z,50.27
2022-08-19T16:12:58.215Z,53.40
2022-08-19T16:15:27.889Z,47.07
2022-08-19T16:17:57.418Z,45.93
2022-08-19T16:20:27.645Z,44.70
2022-08-19T16:22:55.584Z,42.37
2022-08-19T16:25:27.747Z,39.40
2022-08-19T16:28:07.384Z,41.97
2022-08-19T16:30:36.964Z,37.47
2022-08-19T16:33:05.753Z,37.43
2022-08-19T16:35:33.637Z,33.93
2022-08-19T16:38:02.717Z,52.93
2022-08-19T16:40:30.533Z,32.53
2022-08-19T16:42:59.750Z,44.13
2022-08-19T16:45:27.534Z,30.30
2022-08-19T16:47:58.228Z,30.87
2022-08-19T16:50:47.794Z,31.07
2022-08-19T16:53:15.874Z,26.23
2022-08-19T16:55:43.643Z,29.50
2022-08-19T16:58:12.918Z,28.70
2022-08-19T17:00:41.468Z,27.57
2022-08-19T17:03:14.770Z,26.23
2022-08-19T17:05:44.101Z,29.97
2022-08-19T17:08:11.941Z,26.67
2022-08-19T17:10:40.057Z,27.77
2022-08-19T17:13:08.545Z,29.13
2022-08-19T17:15:38.067Z,28.53
2022-08-19T17:18:08.018Z,29.17
2022-08-19T17:20:36.535Z,27.93
2022-08-19T17:23:04.958Z,28.00
2022-08-19T17:25:33.442Z,28.63
2022-08-19T17:28:08.174Z,29.53
2022-08-19T17:30:37.581Z,28.57
2022-08-19T17:33:06.259Z,27.93
2022-08-19T17:35:45.133Z,28.33
2022-08-19T17:38:17.152Z,28.53
2022-08-19T17:40:46.303Z,28.13
2022-08-19T17:43:16.553Z,26.67
2022-08-19T17:46:03.101Z,26.97
2022-08-19T17:48:31.745Z,26.87
2022-08-19T17:50:59.951Z,26.70
2022-08-19T17:53:27.772Z,27.97
2022-08-19T17:55:55.560Z,28.50
2022-08-19T17:58:23.824Z,27.90
2022-08-19T18:00:53.359Z,24.93
2022-08-19T18:03:23.337Z,28.13
2022-08-19T18:05:51.424Z,27.30
2022-08-19T18:08:22.564Z,27.70
2022-08-19T18:10:51.021Z,28.07
2022-08-19T18:13:21.228Z,28.93
2022-08-19T18:15:51.055Z,29.07
2022-08-19T18:18:19.017Z,29.80
2022-08-19T18:20:51.040Z,30.93
2022-08-19T18:23:44.243Z,30.00
2022-08-19T18:26:09.786Z,30.17
2022-08-19T18:28:50.030Z,29.30
2022-08-19T18:31:18.290Z,31.50
2022-08-19T18:33:53.748Z,30.47
2022-08-19T18:36:50.221Z,29.53
2022-08-19T18:39:29.392Z,28.00
2022-08-19T18:42:14.845Z,28.23
2022-08-19T18:45:00.286Z,29.10
2022-08-19T18:47:45.959Z,28.13
2022-08-19T18:50:13.976Z,27.87
2022-08-19T18:52:43.478Z,27.70
2022-08-19T18:55:11.710Z,27.93
2022-08-19T18:57:40.127Z,29.63
2022-08-19T19:00:10.199Z,28.83
2022-08-19T19:02:39.958Z,27.23
2022-08-19T19:05:09.124Z,26.70
2022-08-19T19:07:36.941Z,27.77
2022-08-19T19:10:07.130Z,26.50
2022-08-19T19:12:42.304Z,28.00
2022-08-19T19:15:10.630Z,26.93
2022-08-19T19:17:39.903Z,26.40
2022-08-19T19:20:10.522Z,27.23
2022-08-19T19:22:40.194Z,27.80
2022-08-19T19:25:12.280Z,27.70
2022-08-19T19:27:41.067Z,32.57
2022-08-19T19:30:09.802Z,36.10
2022-08-19T19:32:39.266Z,35.43
2022-08-19T19:35:13.278Z,37.67
2022-08-19T19:37:43.376Z,36.67
2022-08-19T19:40:13.246Z,38.03
2022-08-19T19:42:41.052Z,36.70
2022-08-19T19:45:12.870Z,37.53
2022-08-19T19:47:40.656Z,38.90
2022-08-19T19:50:16.792Z,37.23
2022-08-19T19:52:46.935Z,37.13
2022-08-19T19:55:21.282Z,37.73
2022-08-19T19:57:49.957Z,38.70
2022-08-19T20:00:19.795Z,38.07
2022-08-19T20:02:58.941Z,40.13
2022-08-19T20:05:35.532Z,37.60
2022-08-19T20:08:34.777Z,38.90
2022-08-19T20:11:22.019Z,35.87
2022-08-19T20:14:11.639Z,36.57
2022-08-19T20:16:44.309Z,37.40
2022-08-19T20:19:15.909Z,37.30
2022-08-19T20:21:52.958Z,36.47
2022-08-19T20:24:23.821Z,38.33
2022-08-19T20:26:53.744Z,37.83
2022-08-19T20:29:39.107Z,38.07
2022-08-19T20:32:16.389Z,36.77
2022-08-19T20:34:49.355Z,38.47
2022-08-19T20:37:17.485Z,38.20
2022-08-19T20:39:45.698Z,37.20
2022-08-19T20:42:21.217Z,37.83
2022-08-19T20:44:49.606Z,35.80
2022-08-19T20:47:18.442Z,35.13
2022-08-19T20:49:49.406Z,37.90
2022-08-19T20:52:17.595Z,34.70
2022-08-19T20:54:49.104Z,39.17
2022-08-19T20:57:19.449Z,39.37
2022-08-19T20:59:54.876Z,40.07
2022-08-19T21:02:25.139Z,41.50
2022-08-19T21:04:54.476Z,41.53
2022-08-19T21:07:39.117Z,39.37
2022-08-19T21:10:09.098Z,39.80
2022-08-19T21:12:47.103Z,39.60
2022-08-19T21:15:15.194Z,38.87
2022-08-19T21:17:43.871Z,36.77
2022-08-19T21:20:12.369Z,38.50
2022-08-19T21:22:40.694Z,38.83
2022-08-19T21:25:12.656Z,37.90
2022-08-19T21:27:55.198Z,85.90
2022-08-19T21:30:27.253Z,34.53
2022-08-19T21:32:55.743Z,33.23
2022-08-19T21:35:33.193Z,34.20
2022-08-19T21:38:02.078Z,32.53
2022-08-19T21:40:34.609Z,31.33
2022-08-19T21:43:07.404Z,31.47
2022-08-19T21:45:38.531Z,33.33
2022-08-19T21:48:07.189Z,35.40
2022-08-19T21:50:36.736Z,32.33
2022-08-19T21:53:19.234Z,32.60
2022-08-19T21:55:54.176Z,32.53
2022-08-19T21:58:29.895Z,33.23
2022-08-19T22:00:58.880Z,33.40
2022-08-19T22:03:28.435Z,34.50
2022-08-19T22:05:56.235Z,34.77
2022-08-19T22:08:24.328Z,36.03
2022-08-19T22:10:52.559Z,35.33
2022-08-19T22:13:23.335Z,34.90
2022-08-19T22:16:00.036Z,33.77
2022-08-19T22:18:40.204Z,32.67
2022-08-19T22:21:11.844Z,33.30
2022-08-19T22:23:41.104Z,31.83
2022-08-19T22:26:20.818Z,32.83
2022-08-19T22:28:51.172Z,32.03
2022-08-19T22:31:26.543Z,33.30
2022-08-19T22:33:57.825Z,40.30
2022-08-19T22:36:42.422Z,47.13
2022-08-19T22:39:12.898Z,59.63
2022-08-19T22:41:40.953Z,75.10
2022-08-19T22:44:15.924Z,87.43
2022-08-19T22:46:46.437Z,89.53
2022-08-19T22:49:16.395Z,90.73
2022-08-19T22:52:06.147Z,72.10
2022-08-19T22:54:51.680Z,69.77
2022-08-19T22:57:23.843Z,62.03
2022-08-19T22:59:56.040Z,58.83
2022-08-19T23:03:11.095Z,55.83
2022-08-19T23:05:45.401Z,43.27
2022-08-19T23:08:15.173Z,38.43
2022-08-19T23:10:52.669Z,40.23
2022-08-19T23:13:20.722Z,37.93
2022-08-19T23:16:10.365Z,37.47
2022-08-19T23:18:41.706Z,44.47
2022-08-19T23:21:11.412Z,45.03
2022-08-19T23:23:40.860Z,56.90
2022-08-19T23:26:22.101Z,62.13
2022-08-19T23:29:07.887Z,57.97
2022-08-19T23:31:36.395Z,58.37
2022-08-19T23:34:07.244Z,62.90
2022-08-19T23:36:36.714Z,56.73
2022-08-19T23:39:04.679Z,55.77
2022-08-19T23:41:43.997Z,50.30
2022-08-19T23:44:16.910Z,47.30
2022-08-19T23:46:54.945Z,50.97
2022-08-19T23:49:25.468Z,51.53
2022-08-19T23:51:56.408Z,66.00
2022-08-19T23:54:27.444Z,61.63
2022-08-19T23:57:14.842Z,74.23
2022-08-19T23:59:45.852Z,76.30
